Bearden, Oklahoma
Current Conditions -  °F | °C
As of 2:35 PM on Friday 21 Nov 2014 (Local Time) from KOKM Reporting Station
Overcast Overcast  
Wind Chill: 13°   Ceiling: 1200
Heat Index: 13°   Visibility: 10mi
Dew Point: 11°   Wind: 14mph
Humidity: 83%   Direction: 130°SE
Pressure: 30.07"   Gusts: 21mph
Location:  35.469°N, 96.2923°W
Report Text: KOKM 212035Z AUTO 13012G18KT 110V170 10SM OVC012 13/11 A3007 RMK AO2 T01330105
Loading
Personal Weather Stations






























Interactive Weather Map New forecast layout! Learn more

10-Day Weather Forecast

Advertisements
Track Severe Weather on mobile